FLI450 EKVG-EKCH
Flight info
| Callsign | FLI450 |
|---|---|
| Flight time | 1h 47m |
| Altitude | 37000 |
| Route | ODEVA DCT GUNPA/N0436F370 DCT TESPI |
| Aircraft | A320/M-SDE3FGHIRWY/LB1 |
Departure
| Time | 2026-04-26 18:15 |
|---|---|
| Airport | Vágar Airport (EKVG) |
Arrival
| Time | 2026-04-26 20:02 |
|---|---|
| Airport | Copenhagen Kastrup Airport (EKCH) |
| Time | Latitude | Longitude | Altitude | Speed | Heading |
|---|---|---|---|---|---|
| 2026-04-26 17:45 | 62.06690 | -7.27942 | 279 ft | 0 kts | 29° |
| 2026-04-26 18:07 | 62.06675 | -7.27959 | 279 ft | 4 kts | 20° |
| 2026-04-26 18:07 | 62.06652 | -7.27966 | 284 ft | 4 kts | 329° |
| 2026-04-26 18:07 | 62.06643 | -7.27947 | 283 ft | 0 kts | 288° |
| 2026-04-26 18:09 | 62.06644 | -7.27952 | 279 ft | 0 kts | 288° |
| 2026-04-26 18:09 | 62.06648 | -7.27991 | 279 ft | 6 kts | 281° |
| 2026-04-26 18:09 | 62.06601 | -7.28083 | 278 ft | 13 kts | 183° |
| 2026-04-26 18:09 | 62.06598 | -7.27946 | 279 ft | 13 kts | 24° |
| 2026-04-26 18:10 | 62.06633 | -7.28084 | 280 ft | 11 kts | 195° |
| 2026-04-26 18:10 | 62.06587 | -7.28086 | 278 ft | 0 kts | 186° |
| 2026-04-26 18:10 | 62.06564 | -7.28097 | 280 ft | 0 kts | 197° |
| 2026-04-26 18:10 | 62.06508 | -7.28140 | 280 ft | 8 kts | 204° |
| 2026-04-26 18:11 | 62.06506 | -7.28142 | 280 ft | 0 kts | 205° |
| 2026-04-26 18:11 | 62.06544 | -7.28103 | 279 ft | 17 kts | 200° |
| 2026-04-26 18:11 | 62.06563 | -7.28088 | 281 ft | 0 kts | 197° |
| 2026-04-26 18:13 | 62.06557 | -7.28093 | 278 ft | 6 kts | 200° |
| 2026-04-26 18:13 | 62.06505 | -7.28143 | 280 ft | 17 kts | 212° |
| 2026-04-26 18:14 | 62.06579 | -7.28610 | 276 ft | 37 kts | 298° |
| 2026-04-26 18:14 | 62.06686 | -7.29043 | 270 ft | 21 kts | 297° |
| 2026-04-26 18:14 | 62.06730 | -7.29220 | 269 ft | 11 kts | 13° |
| 2026-04-26 18:14 | 62.06699 | -7.29086 | 269 ft | 5 kts | 117° |
| 2026-04-26 18:15 | 62.06655 | -7.28904 | 272 ft | 48 kts | 117° |
| 2026-04-26 18:15 | 62.06368 | -7.27744 | 288 ft | 126 kts | 118° |
| 2026-04-26 18:15 | 62.05876 | -7.25749 | 451 ft | 172 kts | 117° |
| 2026-04-26 18:15 | 62.05284 | -7.23485 | 1384 ft | 172 kts | 132° |
| 2026-04-26 18:16 | 62.04357 | -7.22143 | 2553 ft | 159 kts | 163° |
| 2026-04-26 18:16 | 62.02140 | -7.23076 | 4222 ft | 169 kts | 204° |
| 2026-04-26 18:16 | 62.00975 | -7.23830 | 4910 ft | 187 kts | 187° |
| 2026-04-26 18:17 | 61.99591 | -7.23799 | 5282 ft | 212 kts | 174° |
| 2026-04-26 18:17 | 61.98067 | -7.23002 | 5695 ft | 238 kts | 162° |
| 2026-04-26 18:17 | 61.96543 | -7.21325 | 6421 ft | 252 kts | 147° |
| 2026-04-26 18:17 | 61.95226 | -7.18852 | 7308 ft | 260 kts | 134° |
| 2026-04-26 18:18 | 61.94216 | -7.15592 | 8191 ft | 270 kts | 116° |
| 2026-04-26 18:18 | 61.93659 | -7.11725 | 9098 ft | 278 kts | 100° |
| 2026-04-26 18:18 | 61.93405 | -7.07566 | 9846 ft | 290 kts | 99° |
| 2026-04-26 18:18 | 61.93139 | -7.03210 | 10387 ft | 306 kts | 99° |
| 2026-04-26 18:19 | 61.92849 | -6.98555 | 10673 ft | 329 kts | 99° |
| 2026-04-26 18:19 | 61.92543 | -6.93718 | 11253 ft | 339 kts | 99° |
| 2026-04-26 18:19 | 61.92224 | -6.88724 | 12016 ft | 343 kts | 99° |
| 2026-04-26 18:19 | 61.91900 | -6.83666 | 12796 ft | 347 kts | 99° |
| 2026-04-26 18:20 | 61.91574 | -6.78568 | 13579 ft | 350 kts | 99° |
| 2026-04-26 18:20 | 61.91239 | -6.73399 | 14293 ft | 354 kts | 99° |
| 2026-04-26 18:20 | 61.90898 | -6.68193 | 14985 ft | 357 kts | 99° |
| 2026-04-26 18:20 | 61.90787 | -6.66501 | 15212 ft | 358 kts | 99° |
| 2026-04-26 18:21 | 61.90103 | -6.57774 | 16348 ft | 362 kts | 105° |
| 2026-04-26 18:21 | 61.89529 | -6.52532 | 17026 ft | 365 kts | 104° |
| 2026-04-26 18:21 | 61.88951 | -6.47232 | 17690 ft | 369 kts | 104° |
| 2026-04-26 18:21 | 61.88373 | -6.41979 | 18352 ft | 371 kts | 105° |
| 2026-04-26 18:22 | 61.87780 | -6.36640 | 18993 ft | 372 kts | 105° |
| 2026-04-26 18:22 | 61.87182 | -6.31286 | 19587 ft | 375 kts | 105° |
| 2026-04-26 18:22 | 61.86576 | -6.25893 | 20189 ft | 377 kts | 105° |
| 2026-04-26 18:22 | 61.85963 | -6.20440 | 20773 ft | 380 kts | 105° |
| 2026-04-26 18:23 | 61.85348 | -6.14979 | 21357 ft | 382 kts | 105° |
| 2026-04-26 18:23 | 61.84727 | -6.09472 | 21930 ft | 385 kts | 105° |
| 2026-04-26 18:23 | 61.84102 | -6.03977 | 22500 ft | 388 kts | 105° |
| 2026-04-26 18:23 | 61.83465 | -5.98398 | 23076 ft | 391 kts | 106° |
| 2026-04-26 18:24 | 61.82822 | -5.92785 | 23623 ft | 393 kts | 106° |
| 2026-04-26 18:24 | 61.82174 | -5.87143 | 24095 ft | 396 kts | 106° |
| 2026-04-26 18:24 | 61.81741 | -5.83395 | 24396 ft | 397 kts | 106° |
| 2026-04-26 18:24 | 61.80863 | -5.75829 | 24993 ft | 400 kts | 106° |
| 2026-04-26 18:25 | 61.80196 | -5.70108 | 25425 ft | 402 kts | 106° |
| 2026-04-26 18:25 | 61.79521 | -5.64344 | 25828 ft | 405 kts | 106° |
| 2026-04-26 18:25 | 61.78841 | -5.58551 | 26251 ft | 407 kts | 106° |
| 2026-04-26 18:25 | 61.78387 | -5.54685 | 26524 ft | 408 kts | 106° |
| 2026-04-26 18:26 | 61.77701 | -5.48855 | 26933 ft | 410 kts | 106° |
| 2026-04-26 18:26 | 61.77008 | -5.42997 | 27332 ft | 412 kts | 106° |
| 2026-04-26 18:26 | 61.76308 | -5.37114 | 27742 ft | 413 kts | 106° |
| 2026-04-26 18:26 | 61.75600 | -5.31209 | 28121 ft | 415 kts | 106° |
| 2026-04-26 18:27 | 61.74890 | -5.25290 | 28505 ft | 417 kts | 106° |
| 2026-04-26 18:27 | 61.74173 | -5.19330 | 28880 ft | 419 kts | 106° |
| 2026-04-26 18:27 | 61.73449 | -5.13367 | 29243 ft | 420 kts | 107° |
| 2026-04-26 18:27 | 61.72722 | -5.07380 | 29593 ft | 422 kts | 107° |
| 2026-04-26 18:28 | 61.71990 | -5.01364 | 29947 ft | 424 kts | 107° |
| 2026-04-26 18:28 | 61.71254 | -4.95333 | 30240 ft | 426 kts | 107° |
| 2026-04-26 18:28 | 61.70515 | -4.89309 | 30473 ft | 429 kts | 107° |
| 2026-04-26 18:28 | 61.69759 | -4.83202 | 30697 ft | 432 kts | 107° |
| 2026-04-26 18:29 | 61.68995 | -4.77051 | 30936 ft | 435 kts | 107° |
| 2026-04-26 18:29 | 61.68227 | -4.70898 | 31167 ft | 437 kts | 107° |
| 2026-04-26 18:29 | 61.67450 | -4.64677 | 31366 ft | 440 kts | 107° |
| 2026-04-26 18:29 | 61.66666 | -4.58425 | 31582 ft | 442 kts | 107° |
| 2026-04-26 18:30 | 61.65879 | -4.52178 | 31894 ft | 442 kts | 107° |
| 2026-04-26 18:30 | 61.65083 | -4.45911 | 32182 ft | 442 kts | 107° |
| 2026-04-26 18:30 | 61.64284 | -4.39637 | 32459 ft | 443 kts | 107° |
| 2026-04-26 18:30 | 61.63486 | -4.33374 | 32746 ft | 443 kts | 107° |
| 2026-04-26 18:31 | 61.62697 | -4.27183 | 33018 ft | 444 kts | 107° |
| 2026-04-26 18:31 | 61.61896 | -4.20914 | 33272 ft | 445 kts | 108° |
| 2026-04-26 18:31 | 61.61084 | -4.14617 | 33530 ft | 446 kts | 108° |
| 2026-04-26 18:31 | 61.60267 | -4.08314 | 33812 ft | 446 kts | 108° |
| 2026-04-26 18:32 | 61.59456 | -4.02086 | 34098 ft | 447 kts | 108° |
| 2026-04-26 18:32 | 61.58632 | -3.95783 | 34360 ft | 447 kts | 108° |
| 2026-04-26 18:32 | 61.57802 | -3.89464 | 34600 ft | 448 kts | 108° |
| 2026-04-26 18:32 | 61.56969 | -3.83160 | 34823 ft | 449 kts | 108° |
| 2026-04-26 18:33 | 61.56130 | -3.76840 | 35028 ft | 449 kts | 108° |
| 2026-04-26 18:33 | 61.55297 | -3.70578 | 35241 ft | 450 kts | 108° |
| 2026-04-26 18:33 | 61.54451 | -3.64238 | 35454 ft | 451 kts | 108° |
| 2026-04-26 18:33 | 61.53599 | -3.57883 | 35667 ft | 451 kts | 108° |
| 2026-04-26 18:34 | 61.52746 | -3.51553 | 35835 ft | 452 kts | 108° |
| 2026-04-26 18:34 | 61.51885 | -3.45182 | 35988 ft | 454 kts | 108° |
| 2026-04-26 18:34 | 61.51023 | -3.38800 | 36170 ft | 455 kts | 108° |
| 2026-04-26 18:34 | 61.50152 | -3.32405 | 36367 ft | 456 kts | 108° |
| 2026-04-26 18:35 | 61.49286 | -3.26077 | 36518 ft | 457 kts | 108° |
| 2026-04-26 18:35 | 61.48405 | -3.19665 | 36711 ft | 457 kts | 108° |
| 2026-04-26 18:35 | 61.47523 | -3.13266 | 36906 ft | 458 kts | 108° |
| 2026-04-26 18:35 | 61.46634 | -3.06832 | 37066 ft | 459 kts | 108° |
| 2026-04-26 18:36 | 61.45754 | -3.00493 | 37220 ft | 460 kts | 108° |
| 2026-04-26 18:36 | 61.44859 | -2.94063 | 37260 ft | 458 kts | 108° |
| 2026-04-26 18:36 | 61.43066 | -2.81274 | 37261 ft | 457 kts | 108° |
| 2026-04-26 18:37 | 61.41262 | -2.68523 | 37263 ft | 458 kts | 108° |
| 2026-04-26 18:37 | 61.39451 | -2.55759 | 37263 ft | 458 kts | 108° |
| 2026-04-26 18:38 | 61.37633 | -2.43100 | 37268 ft | 458 kts | 109° |
| 2026-04-26 18:38 | 61.35784 | -2.30357 | 37271 ft | 458 kts | 109° |
| 2026-04-26 18:39 | 61.33927 | -2.17645 | 37273 ft | 458 kts | 109° |
| 2026-04-26 18:39 | 61.32071 | -2.04963 | 37261 ft | 458 kts | 108° |
| 2026-04-26 18:40 | 61.30215 | -1.92347 | 37261 ft | 458 kts | 108° |
| 2026-04-26 18:40 | 61.28325 | -1.79651 | 37265 ft | 459 kts | 109° |
| 2026-04-26 18:41 | 61.26419 | -1.67027 | 37279 ft | 459 kts | 109° |
| 2026-04-26 18:41 | 61.24494 | -1.54301 | 37282 ft | 460 kts | 109° |
| 2026-04-26 18:42 | 61.22572 | -1.41686 | 37284 ft | 459 kts | 109° |
| 2026-04-26 18:42 | 61.20631 | -1.29030 | 37288 ft | 459 kts | 109° |
| 2026-04-26 18:43 | 61.18679 | -1.16401 | 37290 ft | 459 kts | 109° |
| 2026-04-26 18:43 | 61.16727 | -1.03874 | 37299 ft | 459 kts | 109° |
| 2026-04-26 18:44 | 61.14743 | -0.91245 | 37313 ft | 460 kts | 109° |
| 2026-04-26 18:44 | 61.12753 | -0.78632 | 37316 ft | 460 kts | 109° |
| 2026-04-26 18:45 | 61.10755 | -0.66107 | 37321 ft | 460 kts | 110° |
| 2026-04-26 18:45 | 61.08742 | -0.53541 | 37313 ft | 460 kts | 109° |
| 2026-04-26 18:46 | 61.06722 | -0.41004 | 37322 ft | 460 kts | 110° |
| 2026-04-26 18:46 | 61.04686 | -0.28485 | 37311 ft | 459 kts | 110° |
| 2026-04-26 18:47 | 61.02648 | -0.16049 | 37305 ft | 459 kts | 110° |
| 2026-04-26 18:47 | 61.00513 | -0.03595 | 37294 ft | 458 kts | 116° |
| 2026-04-26 18:48 | 60.97152 | 0.07453 | 37295 ft | 455 kts | 130° |
| 2026-04-26 18:48 | 60.93238 | 0.17618 | 37306 ft | 456 kts | 130° |
| 2026-04-26 18:49 | 60.89293 | 0.27876 | 37314 ft | 456 kts | 130° |
| 2026-04-26 18:49 | 60.85367 | 0.38035 | 37311 ft | 457 kts | 130° |
| 2026-04-26 18:50 | 60.81402 | 0.48242 | 37317 ft | 457 kts | 130° |
| 2026-04-26 18:50 | 60.77427 | 0.58417 | 37323 ft | 457 kts | 130° |
| 2026-04-26 18:51 | 60.73465 | 0.68504 | 37305 ft | 457 kts | 131° |
| 2026-04-26 18:51 | 60.69459 | 0.78666 | 37302 ft | 458 kts | 131° |
| 2026-04-26 18:52 | 60.65463 | 0.88760 | 37313 ft | 459 kts | 131° |
| 2026-04-26 18:52 | 60.61439 | 0.98894 | 37312 ft | 460 kts | 131° |
| 2026-04-26 18:53 | 60.57425 | 1.08950 | 37329 ft | 460 kts | 131° |
| 2026-04-26 18:53 | 60.53377 | 1.19049 | 37332 ft | 459 kts | 131° |
| 2026-04-26 18:54 | 60.49324 | 1.29103 | 37331 ft | 460 kts | 131° |
| 2026-04-26 18:54 | 60.45288 | 1.39073 | 37313 ft | 460 kts | 131° |
| 2026-04-26 18:55 | 60.41218 | 1.49103 | 37315 ft | 461 kts | 131° |
| 2026-04-26 18:55 | 60.37120 | 1.59141 | 37349 ft | 463 kts | 131° |
| 2026-04-26 18:56 | 60.35056 | 1.64180 | 37498 ft | 464 kts | 131° |
| 2026-04-26 18:56 | 60.32997 | 1.69200 | 37674 ft | 465 kts | 131° |
| 2026-04-26 18:56 | 60.30959 | 1.74163 | 37854 ft | 465 kts | 131° |
| 2026-04-26 18:56 | 60.28884 | 1.79204 | 38042 ft | 465 kts | 131° |
| 2026-04-26 18:57 | 60.26812 | 1.84223 | 38214 ft | 465 kts | 131° |
| 2026-04-26 18:57 | 60.25442 | 1.87530 | 38369 ft | 464 kts | 131° |
| 2026-04-26 18:57 | 60.22666 | 1.94205 | 38616 ft | 464 kts | 132° |
| 2026-04-26 18:57 | 60.20594 | 1.99177 | 38793 ft | 464 kts | 132° |
| 2026-04-26 18:58 | 60.18537 | 2.04109 | 38951 ft | 464 kts | 132° |
| 2026-04-26 18:58 | 60.16449 | 2.09117 | 39073 ft | 465 kts | 131° |
| 2026-04-26 18:58 | 60.14372 | 2.14099 | 39181 ft | 465 kts | 131° |
| 2026-04-26 18:58 | 60.12294 | 2.19074 | 39305 ft | 465 kts | 132° |
| 2026-04-26 18:59 | 60.08112 | 2.29040 | 39342 ft | 467 kts | 132° |
| 2026-04-26 18:59 | 60.03931 | 2.38919 | 39345 ft | 467 kts | 132° |
| 2026-04-26 19:00 | 59.99716 | 2.48838 | 39339 ft | 468 kts | 132° |
| 2026-04-26 19:00 | 59.95494 | 2.58754 | 39339 ft | 468 kts | 132° |
| 2026-04-26 19:01 | 59.91291 | 2.68581 | 39341 ft | 468 kts | 132° |
| 2026-04-26 19:01 | 59.87048 | 2.78440 | 39342 ft | 469 kts | 132° |
| 2026-04-26 19:02 | 59.82786 | 2.88286 | 39323 ft | 470 kts | 132° |
| 2026-04-26 19:02 | 59.79241 | 2.96483 | 39328 ft | 470 kts | 133° |
| 2026-04-26 19:03 | 59.74218 | 3.08034 | 39337 ft | 472 kts | 133° |
| 2026-04-26 19:03 | 59.69947 | 3.17821 | 39346 ft | 472 kts | 133° |
| 2026-04-26 19:04 | 59.65624 | 3.27672 | 39358 ft | 472 kts | 133° |
| 2026-04-26 19:04 | 59.61318 | 3.37419 | 39356 ft | 473 kts | 133° |
| 2026-04-26 19:05 | 59.54833 | 3.52054 | 39306 ft | 471 kts | 133° |
| 2026-04-26 19:06 | 59.50492 | 3.61800 | 39342 ft | 474 kts | 133° |
| 2026-04-26 19:06 | 59.46142 | 3.71503 | 39342 ft | 474 kts | 133° |
| 2026-04-26 19:07 | 59.41759 | 3.81247 | 39339 ft | 474 kts | 133° |
| 2026-04-26 19:07 | 59.38113 | 3.89338 | 39343 ft | 474 kts | 133° |
| 2026-04-26 19:08 | 59.33747 | 3.98981 | 39345 ft | 475 kts | 133° |
| 2026-04-26 19:08 | 59.29341 | 4.08679 | 39348 ft | 476 kts | 133° |
| 2026-04-26 19:09 | 59.24916 | 4.18374 | 39332 ft | 477 kts | 134° |
| 2026-04-26 19:09 | 59.20508 | 4.27967 | 39341 ft | 477 kts | 134° |
| 2026-04-26 19:10 | 59.16062 | 4.37603 | 39346 ft | 478 kts | 134° |
| 2026-04-26 19:10 | 59.11495 | 4.47042 | 39352 ft | 477 kts | 136° |
| 2026-04-26 19:11 | 59.06836 | 4.56279 | 39353 ft | 478 kts | 136° |
| 2026-04-26 19:11 | 59.02197 | 4.65571 | 39346 ft | 479 kts | 135° |
| 2026-04-26 19:12 | 58.97633 | 4.74918 | 39347 ft | 480 kts | 135° |
| 2026-04-26 19:12 | 58.93109 | 4.84419 | 39327 ft | 480 kts | 134° |
| 2026-04-26 19:13 | 58.88632 | 4.94069 | 39335 ft | 481 kts | 133° |
| 2026-04-26 19:13 | 58.84260 | 5.03750 | 39345 ft | 481 kts | 132° |
| 2026-04-26 19:14 | 58.79920 | 5.13623 | 39343 ft | 482 kts | 131° |
| 2026-04-26 19:14 | 58.75666 | 5.23575 | 39342 ft | 483 kts | 130° |
| 2026-04-26 19:15 | 58.71464 | 5.33686 | 39328 ft | 484 kts | 129° |
| 2026-04-26 19:15 | 58.67333 | 5.43921 | 39331 ft | 484 kts | 128° |
| 2026-04-26 19:16 | 58.63278 | 5.54269 | 39326 ft | 484 kts | 127° |
| 2026-04-26 19:16 | 58.59325 | 5.64669 | 39330 ft | 485 kts | 127° |
| 2026-04-26 19:17 | 58.55587 | 5.75411 | 39329 ft | 485 kts | 114° |
| 2026-04-26 19:17 | 58.52726 | 5.87030 | 39311 ft | 481 kts | 131° |
| 2026-04-26 19:18 | 58.48015 | 5.96094 | 39309 ft | 479 kts | 140° |
| 2026-04-26 19:18 | 58.43111 | 6.04673 | 39311 ft | 480 kts | 138° |
| 2026-04-26 19:19 | 58.38338 | 6.13647 | 39316 ft | 481 kts | 136° |
| 2026-04-26 19:19 | 58.33718 | 6.22835 | 39304 ft | 482 kts | 135° |
| 2026-04-26 19:20 | 58.29066 | 6.32053 | 39292 ft | 482 kts | 135° |
| 2026-04-26 19:20 | 58.24362 | 6.41159 | 39304 ft | 482 kts | 136° |
| 2026-04-26 19:21 | 58.19632 | 6.50216 | 39295 ft | 482 kts | 136° |
| 2026-04-26 19:21 | 58.14901 | 6.59269 | 39299 ft | 482 kts | 136° |
| 2026-04-26 19:22 | 58.10195 | 6.68232 | 39289 ft | 483 kts | 136° |
| 2026-04-26 19:22 | 58.05461 | 6.77232 | 39309 ft | 482 kts | 136° |
| 2026-04-26 19:23 | 58.00720 | 6.86221 | 39275 ft | 481 kts | 136° |
| 2026-04-26 19:23 | 57.98382 | 6.90648 | 39259 ft | 468 kts | 136° |
| 2026-04-26 19:23 | 57.96148 | 6.94868 | 39321 ft | 459 kts | 135° |
| 2026-04-26 19:24 | 57.91658 | 7.03314 | 39305 ft | 453 kts | 136° |
| 2026-04-26 19:24 | 57.84980 | 7.15794 | 39296 ft | 453 kts | 137° |
| 2026-04-26 19:25 | 57.81259 | 7.22709 | 39299 ft | 452 kts | 137° |
| 2026-04-26 19:25 | 57.76022 | 7.32432 | 39299 ft | 453 kts | 136° |
| 2026-04-26 19:26 | 57.71561 | 7.40691 | 39295 ft | 453 kts | 137° |
| 2026-04-26 19:26 | 57.67053 | 7.48992 | 39293 ft | 453 kts | 137° |
| 2026-04-26 19:27 | 57.62569 | 7.57207 | 39294 ft | 453 kts | 137° |
| 2026-04-26 19:27 | 57.58067 | 7.65419 | 39305 ft | 453 kts | 137° |
| 2026-04-26 19:28 | 57.53541 | 7.73663 | 39313 ft | 453 kts | 137° |
| 2026-04-26 19:28 | 57.49025 | 7.81884 | 39311 ft | 453 kts | 137° |
| 2026-04-26 19:29 | 57.44562 | 7.89973 | 39302 ft | 448 kts | 137° |
| 2026-04-26 19:29 | 57.42331 | 7.94000 | 39017 ft | 447 kts | 137° |
| 2026-04-26 19:29 | 57.40100 | 7.98018 | 38516 ft | 445 kts | 137° |
| 2026-04-26 19:30 | 57.37892 | 8.01986 | 38257 ft | 438 kts | 137° |
| 2026-04-26 19:30 | 57.35700 | 8.05912 | 38307 ft | 438 kts | 137° |
| 2026-04-26 19:30 | 57.32013 | 8.12348 | 38298 ft | 436 kts | 146° |
| 2026-04-26 19:31 | 57.28478 | 8.15630 | 38306 ft | 424 kts | 172° |
| 2026-04-26 19:31 | 57.25580 | 8.16315 | 38310 ft | 418 kts | 182° |
| 2026-04-26 19:31 | 57.19758 | 8.16592 | 38307 ft | 418 kts | 184° |
| 2026-04-26 19:32 | 57.13938 | 8.17062 | 38296 ft | 423 kts | 171° |
| 2026-04-26 19:32 | 57.11169 | 8.18881 | 38278 ft | 429 kts | 152° |
| 2026-04-26 19:32 | 57.08787 | 8.22222 | 38276 ft | 433 kts | 133° |
| 2026-04-26 19:33 | 57.07059 | 8.26740 | 38276 ft | 433 kts | 114° |
| 2026-04-26 19:33 | 57.06163 | 8.31931 | 38281 ft | 429 kts | 94° |
| 2026-04-26 19:33 | 57.06169 | 8.37374 | 38311 ft | 425 kts | 75° |
| 2026-04-26 19:33 | 57.06980 | 8.42566 | 38311 ft | 422 kts | 65° |
| 2026-04-26 19:34 | 57.08894 | 8.52836 | 38298 ft | 429 kts | 78° |
| 2026-04-26 19:34 | 57.08969 | 8.58347 | 38300 ft | 436 kts | 97° |
| 2026-04-26 19:34 | 57.08152 | 8.63703 | 38271 ft | 438 kts | 116° |
| 2026-04-26 19:35 | 57.06540 | 8.68356 | 38308 ft | 438 kts | 134° |
| 2026-04-26 19:35 | 57.04345 | 8.72246 | 38310 ft | 438 kts | 140° |
| 2026-04-26 19:35 | 56.99802 | 8.79735 | 38301 ft | 438 kts | 140° |
| 2026-04-26 19:36 | 56.96007 | 8.85918 | 38311 ft | 438 kts | 140° |
| 2026-04-26 19:36 | 56.90688 | 8.94571 | 38303 ft | 439 kts | 140° |
| 2026-04-26 19:37 | 56.86123 | 9.01997 | 38302 ft | 439 kts | 140° |
| 2026-04-26 19:37 | 56.81583 | 9.09384 | 38303 ft | 439 kts | 140° |
| 2026-04-26 19:38 | 56.76999 | 9.16796 | 38286 ft | 439 kts | 140° |
| 2026-04-26 19:38 | 56.72344 | 9.24284 | 38112 ft | 454 kts | 140° |
| 2026-04-26 19:39 | 56.69939 | 9.28143 | 37841 ft | 467 kts | 140° |
| 2026-04-26 19:39 | 56.67476 | 9.32096 | 37570 ft | 476 kts | 140° |
| 2026-04-26 19:39 | 56.64987 | 9.36090 | 37318 ft | 480 kts | 140° |
| 2026-04-26 19:39 | 56.62506 | 9.40061 | 37059 ft | 482 kts | 140° |
| 2026-04-26 19:40 | 56.59979 | 9.44092 | 36793 ft | 483 kts | 140° |
| 2026-04-26 19:40 | 56.57435 | 9.48141 | 36527 ft | 483 kts | 140° |
| 2026-04-26 19:40 | 56.54929 | 9.52127 | 36280 ft | 484 kts | 140° |
| 2026-04-26 19:40 | 56.52383 | 9.56172 | 36023 ft | 484 kts | 140° |
| 2026-04-26 19:41 | 56.49836 | 9.60210 | 35777 ft | 484 kts | 140° |
| 2026-04-26 19:41 | 56.47297 | 9.64225 | 35525 ft | 485 kts | 141° |
| 2026-04-26 19:41 | 56.44758 | 9.68230 | 35259 ft | 485 kts | 141° |
| 2026-04-26 19:41 | 56.43931 | 9.69534 | 35168 ft | 484 kts | 141° |
| 2026-04-26 19:42 | 56.39711 | 9.76165 | 34738 ft | 481 kts | 141° |
| 2026-04-26 19:42 | 56.37194 | 9.80121 | 34500 ft | 479 kts | 140° |
| 2026-04-26 19:42 | 56.34965 | 9.84593 | 34273 ft | 480 kts | 124° |
| 2026-04-26 19:42 | 56.33146 | 9.89665 | 33994 ft | 479 kts | 122° |
| 2026-04-26 19:43 | 56.31379 | 9.94680 | 33714 ft | 478 kts | 122° |
| 2026-04-26 19:43 | 56.29600 | 9.99752 | 33444 ft | 476 kts | 122° |
| 2026-04-26 19:43 | 56.27836 | 10.04787 | 33170 ft | 474 kts | 122° |
| 2026-04-26 19:43 | 56.26071 | 10.09824 | 32904 ft | 472 kts | 122° |
| 2026-04-26 19:44 | 56.24321 | 10.14813 | 32639 ft | 470 kts | 122° |
| 2026-04-26 19:44 | 56.22599 | 10.19698 | 32271 ft | 469 kts | 122° |
| 2026-04-26 19:44 | 56.20841 | 10.24650 | 30957 ft | 472 kts | 123° |
| 2026-04-26 19:44 | 56.19061 | 10.29640 | 29734 ft | 472 kts | 123° |
| 2026-04-26 19:45 | 56.17287 | 10.34596 | 29196 ft | 466 kts | 122° |
| 2026-04-26 19:45 | 56.15546 | 10.39457 | 28617 ft | 462 kts | 122° |
| 2026-04-26 19:45 | 56.13816 | 10.44290 | 28075 ft | 457 kts | 122° |
| 2026-04-26 19:45 | 56.12111 | 10.49063 | 27520 ft | 452 kts | 122° |
| 2026-04-26 19:46 | 56.10440 | 10.53723 | 26999 ft | 448 kts | 122° |
| 2026-04-26 19:46 | 56.08758 | 10.58398 | 26480 ft | 444 kts | 122° |
| 2026-04-26 19:46 | 56.07092 | 10.63022 | 25965 ft | 440 kts | 122° |
| 2026-04-26 19:46 | 56.05437 | 10.67609 | 25457 ft | 437 kts | 122° |
| 2026-04-26 19:47 | 56.03788 | 10.72169 | 24919 ft | 435 kts | 122° |
| 2026-04-26 19:47 | 56.03233 | 10.73702 | 24738 ft | 434 kts | 122° |
| 2026-04-26 19:47 | 56.00496 | 10.81230 | 23825 ft | 432 kts | 122° |
| 2026-04-26 19:47 | 55.98856 | 10.85728 | 23221 ft | 431 kts | 122° |
| 2026-04-26 19:48 | 55.97224 | 10.90191 | 22668 ft | 428 kts | 122° |
| 2026-04-26 19:48 | 55.95612 | 10.94592 | 22121 ft | 425 kts | 122° |
| 2026-04-26 19:48 | 55.93996 | 10.99004 | 21585 ft | 423 kts | 122° |
| 2026-04-26 19:48 | 55.92392 | 11.03388 | 21061 ft | 420 kts | 122° |
| 2026-04-26 19:49 | 55.90803 | 11.07730 | 20594 ft | 416 kts | 122° |
| 2026-04-26 19:49 | 55.89217 | 11.12056 | 20102 ft | 414 kts | 122° |
| 2026-04-26 19:49 | 55.87649 | 11.16313 | 19671 ft | 410 kts | 122° |
| 2026-04-26 19:49 | 55.86102 | 11.20504 | 19175 ft | 408 kts | 122° |
| 2026-04-26 19:50 | 55.84546 | 11.24718 | 18709 ft | 405 kts | 122° |
| 2026-04-26 19:50 | 55.83002 | 11.28891 | 18213 ft | 403 kts | 122° |
| 2026-04-26 19:50 | 55.81455 | 11.33045 | 17759 ft | 399 kts | 123° |
| 2026-04-26 19:50 | 55.79926 | 11.37101 | 17606 ft | 387 kts | 122° |
| 2026-04-26 19:51 | 55.78944 | 11.39747 | 17176 ft | 388 kts | 122° |
| 2026-04-26 19:51 | 55.77475 | 11.43784 | 16359 ft | 387 kts | 121° |
| 2026-04-26 19:51 | 55.75566 | 11.49103 | 15202 ft | 383 kts | 121° |
| 2026-04-26 19:51 | 55.74622 | 11.51739 | 14662 ft | 380 kts | 121° |
| 2026-04-26 19:52 | 55.73214 | 11.55660 | 14086 ft | 369 kts | 121° |
| 2026-04-26 19:52 | 55.71852 | 11.59437 | 13593 ft | 355 kts | 121° |
| 2026-04-26 19:52 | 55.70543 | 11.63049 | 13141 ft | 341 kts | 121° |
| 2026-04-26 19:52 | 55.69292 | 11.66491 | 12721 ft | 329 kts | 121° |
| 2026-04-26 19:53 | 55.68067 | 11.69855 | 12297 ft | 318 kts | 121° |
| 2026-04-26 19:53 | 55.66865 | 11.73145 | 11876 ft | 316 kts | 121° |
| 2026-04-26 19:53 | 55.65671 | 11.76411 | 11461 ft | 314 kts | 121° |
| 2026-04-26 19:53 | 55.64489 | 11.79641 | 11037 ft | 311 kts | 121° |
| 2026-04-26 19:54 | 55.63319 | 11.82832 | 10630 ft | 313 kts | 121° |
| 2026-04-26 19:54 | 55.62128 | 11.86077 | 10337 ft | 312 kts | 121° |
| 2026-04-26 19:54 | 55.60930 | 11.89340 | 10075 ft | 317 kts | 121° |
| 2026-04-26 19:54 | 55.59729 | 11.92608 | 9580 ft | 318 kts | 121° |
| 2026-04-26 19:55 | 55.58535 | 11.95853 | 9250 ft | 313 kts | 122° |
| 2026-04-26 19:55 | 55.57341 | 11.99092 | 8844 ft | 310 kts | 122° |
| 2026-04-26 19:55 | 55.56176 | 12.02234 | 8475 ft | 307 kts | 122° |
| 2026-04-26 19:55 | 55.55011 | 12.05378 | 8090 ft | 304 kts | 122° |
| 2026-04-26 19:56 | 55.53858 | 12.08490 | 7717 ft | 301 kts | 122° |
| 2026-04-26 19:56 | 55.52716 | 12.11567 | 7339 ft | 298 kts | 122° |
| 2026-04-26 19:56 | 55.51588 | 12.14613 | 6960 ft | 295 kts | 123° |
| 2026-04-26 19:56 | 55.50469 | 12.17635 | 6613 ft | 290 kts | 123° |
| 2026-04-26 19:57 | 55.49387 | 12.20544 | 6472 ft | 277 kts | 123° |
| 2026-04-26 19:57 | 55.48364 | 12.23276 | 6339 ft | 265 kts | 123° |
| 2026-04-26 19:57 | 55.47370 | 12.25925 | 6214 ft | 253 kts | 123° |
| 2026-04-26 19:57 | 55.46422 | 12.28466 | 6055 ft | 243 kts | 123° |
| 2026-04-26 19:58 | 55.45476 | 12.31006 | 5401 ft | 255 kts | 123° |
| 2026-04-26 19:58 | 55.44635 | 12.33779 | 4873 ft | 259 kts | 102° |
| 2026-04-26 19:58 | 55.44649 | 12.36844 | 4589 ft | 248 kts | 69° |
| 2026-04-26 19:58 | 55.45532 | 12.39353 | 4214 ft | 240 kts | 41° |
| 2026-04-26 19:59 | 55.46784 | 12.41314 | 3798 ft | 240 kts | 36° |
| 2026-04-26 19:59 | 55.48070 | 12.43223 | 3403 ft | 241 kts | 37° |
| 2026-04-26 19:59 | 55.49349 | 12.45165 | 2787 ft | 250 kts | 38° |
| 2026-04-26 19:59 | 55.50651 | 12.47165 | 2337 ft | 242 kts | 38° |
| 2026-04-26 20:00 | 55.51885 | 12.49064 | 2025 ft | 227 kts | 38° |
| 2026-04-26 20:00 | 55.53036 | 12.50834 | 1687 ft | 212 kts | 38° |
| 2026-04-26 20:00 | 55.54095 | 12.52462 | 1399 ft | 195 kts | 38° |
| 2026-04-26 20:00 | 55.55068 | 12.53960 | 1137 ft | 177 kts | 38° |
| 2026-04-26 20:01 | 55.55959 | 12.55330 | 914 ft | 164 kts | 38° |
| 2026-04-26 20:01 | 55.56787 | 12.56604 | 722 ft | 153 kts | 39° |
| 2026-04-26 20:01 | 55.57571 | 12.57812 | 505 ft | 146 kts | 41° |
| 2026-04-26 20:01 | 55.58321 | 12.58968 | 306 ft | 141 kts | 42° |
| 2026-04-26 20:02 | 55.59052 | 12.60094 | 112 ft | 138 kts | 42° |
| 2026-04-26 20:02 | 55.59745 | 12.61172 | 16 ft | 118 kts | 43° |
| 2026-04-26 20:02 | 55.60209 | 12.61882 | 18 ft | 74 kts | 41° |
| 2026-04-26 20:02 | 55.60411 | 12.62193 | 18 ft | 41 kts | 37° |
| 2026-04-26 20:03 | 55.60599 | 12.62327 | 19 ft | 14 kts | 9° |
| 2026-04-26 20:03 | 55.60723 | 12.62372 | 18 ft | 22 kts | 15° |
| 2026-04-26 20:03 | 55.60872 | 12.62525 | 17 ft | 28 kts | 43° |
| 2026-04-26 20:03 | 55.61027 | 12.62768 | 17 ft | 32 kts | 41° |
| 2026-04-26 20:04 | 55.61200 | 12.63037 | 17 ft | 35 kts | 41° |
| 2026-04-26 20:04 | 55.61391 | 12.63334 | 17 ft | 38 kts | 41° |
| 2026-04-26 20:04 | 55.61593 | 12.63645 | 18 ft | 39 kts | 40° |
| 2026-04-26 20:04 | 55.61765 | 12.63912 | 18 ft | 31 kts | 41° |
| 2026-04-26 20:05 | 55.61953 | 12.64142 | 17 ft | 34 kts | 26° |
| 2026-04-26 20:05 | 55.62169 | 12.64325 | 16 ft | 35 kts | 26° |
| 2026-04-26 20:05 | 55.62368 | 12.64440 | 17 ft | 29 kts | 15° |
| 2026-04-26 20:05 | 55.62460 | 12.64481 | 17 ft | 12 kts | 8° |
| 2026-04-26 20:06 | 55.62527 | 12.64391 | 18 ft | 13 kts | 304° |
| 2026-04-26 20:06 | 55.62591 | 12.64219 | 17 ft | 20 kts | 303° |
| 2026-04-26 20:06 | 55.62658 | 12.64036 | 17 ft | 17 kts | 302° |
| 2026-04-26 20:06 | 55.62732 | 12.63919 | 17 ft | 14 kts | 12° |
| 2026-04-26 20:07 | 55.62820 | 12.63928 | 19 ft | 16 kts | 317° |
| 2026-04-26 20:07 | 55.62857 | 12.63864 | 17 ft | 7 kts | 340° |
| 2026-04-26 20:07 | 55.62885 | 12.63869 | 17 ft | 0 kts | 9° |
| 2026-04-26 20:07 | 55.62889 | 12.63870 | 17 ft | 2 kts | 11° |
| 2026-04-26 20:08 | 55.62893 | 12.63871 | 17 ft | 0 kts | 11° |
| 2026-04-26 20:08 | 55.62893 | 12.63872 | 17 ft | 0 kts | 11° |